sensor_id;sensor_type;location;lat;lon;timestamp;temperature;humidity
15926;DHT22;8062;53.882;10.642;2024-03-06T00:00:13;3.90;99.90
15926;DHT22;8062;53.882;10.642;2024-03-06T00:01:33;3.90;99.90
15926;DHT22;8062;53.882;10.642;2024-03-06T00:02:53;3.90;99.90
15926;DHT22;8062;53.882;10.642;2024-03-06T00:04:12;3.90;99.90
15926;DHT22;8062;53.882;10.642;2024-03-06T00:05:32;3.90;99.90
15926;DHT22;8062;53.882;10.642;2024-03-06T00:06:51;3.90;99.90
15926;DHT22;8062;53.882;10.642;2024-03-06T00:08:11;3.90;99.90
15926;DHT22;8062;53.882;10.642;2024-03-06T00:09:31;3.80;99.90
15926;DHT22;8062;53.882;10.642;2024-03-06T00:10:50;3.80;99.90
15926;DHT22;8062;53.882;10.642;2024-03-06T00:12:10;3.80;99.90
15926;DHT22;8062;53.882;10.642;2024-03-06T00:13:29;3.90;99.90
15926;DHT22;8062;53.882;10.642;2024-03-06T00:14:49;3.90;99.90
15926;DHT22;8062;53.882;10.642;2024-03-06T00:16:08;3.90;99.90
15926;DHT22;8062;53.882;10.642;2024-03-06T00:17:28;3.90;99.90
15926;DHT22;8062;53.882;10.642;2024-03-06T00:18:47;3.90;99.90
15926;DHT22;8062;53.882;10.642;2024-03-06T00:20:07;3.90;99.90
15926;DHT22;8062;53.882;10.642;2024-03-06T00:21:28;3.90;99.90
15926;DHT22;8062;53.882;10.642;2024-03-06T00:22:48;3.90;99.90
15926;DHT22;8062;53.882;10.642;2024-03-06T00:24:08;3.90;99.90
15926;DHT22;8062;53.882;10.642;2024-03-06T00:25:27;4.00;99.90
15926;DHT22;8062;53.882;10.642;2024-03-06T00:26:47;3.90;99.90
15926;DHT22;8062;53.882;10.642;2024-03-06T00:28:06;3.90;99.90
15926;DHT22;8062;53.882;10.642;2024-03-06T00:29:26;4.00;99.90
15926;DHT22;8062;53.882;10.642;2024-03-06T00:30:46;3.90;99.90
15926;DHT22;8062;53.882;10.642;2024-03-06T00:32:05;4.00;99.90
15926;DHT22;8062;53.882;10.642;2024-03-06T00:33:25;3.90;99.90
15926;DHT22;8062;53.882;10.642;2024-03-06T00:34:44;3.90;99.90
15926;DHT22;8062;53.882;10.642;2024-03-06T00:36:04;4.00;99.90
15926;DHT22;8062;53.882;10.642;2024-03-06T00:37:24;3.90;99.90
15926;DHT22;8062;53.882;10.642;2024-03-06T00:38:43;3.90;99.90
15926;DHT22;8062;53.882;10.642;2024-03-06T00:40:03;3.90;99.90
15926;DHT22;8062;53.882;10.642;2024-03-06T00:41:23;3.90;99.90
15926;DHT22;8062;53.882;10.642;2024-03-06T00:42:42;3.90;99.90
15926;DHT22;8062;53.882;10.642;2024-03-06T00:44:03;3.90;99.90
15926;DHT22;8062;53.882;10.642;2024-03-06T00:45:23;3.90;99.90
15926;DHT22;8062;53.882;10.642;2024-03-06T00:46:42;3.90;99.90
15926;DHT22;8062;53.882;10.642;2024-03-06T00:48:02;3.90;99.90
15926;DHT22;8062;53.882;10.642;2024-03-06T00:49:22;3.90;99.90
15926;DHT22;8062;53.882;10.642;2024-03-06T00:50:42;3.90;99.90
15926;DHT22;8062;53.882;10.642;2024-03-06T00:52:01;3.90;99.90
15926;DHT22;8062;53.882;10.642;2024-03-06T00:53:21;3.90;99.90
15926;DHT22;8062;53.882;10.642;2024-03-06T00:54:41;3.90;99.90
15926;DHT22;8062;53.882;10.642;2024-03-06T00:56:01;3.90;99.90
15926;DHT22;8062;53.882;10.642;2024-03-06T00:57:21;4.00;99.90
15926;DHT22;8062;53.882;10.642;2024-03-06T00:58:41;3.90;99.90
15926;DHT22;8062;53.882;10.642;2024-03-06T01:00:00;3.90;99.90
15926;DHT22;8062;53.882;10.642;2024-03-06T01:01:20;3.90;99.90
15926;DHT22;8062;53.882;10.642;2024-03-06T01:02:40;3.90;99.90
15926;DHT22;8062;53.882;10.642;2024-03-06T01:04:00;3.90;99.90
15926;DHT22;8062;53.882;10.642;2024-03-06T01:05:19;3.90;99.90
15926;DHT22;8062;53.882;10.642;2024-03-06T01:06:39;3.90;99.90
15926;DHT22;8062;53.882;10.642;2024-03-06T01:07:59;3.90;99.90
15926;DHT22;8062;53.882;10.642;2024-03-06T01:09:19;3.80;99.90
15926;DHT22;8062;53.882;10.642;2024-03-06T01:10:38;3.90;99.90
15926;DHT22;8062;53.882;10.642;2024-03-06T01:11:58;3.90;99.90
15926;DHT22;8062;53.882;10.642;2024-03-06T01:13:20;3.90;99.90
15926;DHT22;8062;53.882;10.642;2024-03-06T01:14:40;3.80;99.90
15926;DHT22;8062;53.882;10.642;2024-03-06T01:16:00;3.90;99.90
15926;DHT22;8062;53.882;10.642;2024-03-06T01:17:19;3.90;99.90
15926;DHT22;8062;53.882;10.642;2024-03-06T01:18:39;3.90;99.90
15926;DHT22;8062;53.882;10.642;2024-03-06T01:19:59;3.90;99.90
15926;DHT22;8062;53.882;10.642;2024-03-06T01:21:19;3.90;99.90
15926;DHT22;8062;53.882;10.642;2024-03-06T01:22:38;3.90;99.90
15926;DHT22;8062;53.882;10.642;2024-03-06T01:23:58;3.90;99.90
15926;DHT22;8062;53.882;10.642;2024-03-06T01:25:18;3.90;99.90
15926;DHT22;8062;53.882;10.642;2024-03-06T01:26:37;3.90;99.90
15926;DHT22;8062;53.882;10.642;2024-03-06T01:27:56;3.80;99.90
15926;DHT22;8062;53.882;10.642;2024-03-06T01:29:16;3.90;99.90
15926;DHT22;8062;53.882;10.642;2024-03-06T01:30:36;3.90;99.90
15926;DHT22;8062;53.882;10.642;2024-03-06T01:31:55;3.90;99.90
15926;DHT22;8062;53.882;10.642;2024-03-06T01:33:15;3.90;99.90
15926;DHT22;8062;53.882;10.642;2024-03-06T01:34:34;3.90;99.90
15926;DHT22;8062;53.882;10.642;2024-03-06T01:35:54;3.90;99.90
15926;DHT22;8062;53.882;10.642;2024-03-06T01:37:13;3.90;99.90
15926;DHT22;8062;53.882;10.642;2024-03-06T01:38:33;3.90;99.90
15926;DHT22;8062;53.882;10.642;2024-03-06T01:39:52;3.90;99.90
15926;DHT22;8062;53.882;10.642;2024-03-06T01:41:11;3.90;99.90
15926;DHT22;8062;53.882;10.642;2024-03-06T01:42:31;3.90;99.90
15926;DHT22;8062;53.882;10.642;2024-03-06T01:43:51;3.90;99.90
15926;DHT22;8062;53.882;10.642;2024-03-06T01:45:11;3.90;99.90
15926;DHT22;8062;53.882;10.642;2024-03-06T01:46:31;3.90;99.90
15926;DHT22;8062;53.882;10.642;2024-03-06T01:47:50;3.90;99.90
15926;DHT22;8062;53.882;10.642;2024-03-06T01:49:14;3.90;99.90
15926;DHT22;8062;53.882;10.642;2024-03-06T01:50:34;3.80;99.90
15926;DHT22;8062;53.882;10.642;2024-03-06T01:51:55;3.80;99.90
15926;DHT22;8062;53.882;10.642;2024-03-06T01:53:16;3.80;99.90
15926;DHT22;8062;53.882;10.642;2024-03-06T01:54:38;3.80;99.90
15926;DHT22;8062;53.882;10.642;2024-03-06T01:55:58;3.80;99.90
15926;DHT22;8062;53.882;10.642;2024-03-06T01:57:18;3.80;99.90
15926;DHT22;8062;53.882;10.642;2024-03-06T01:58:39;3.90;99.90
15926;DHT22;8062;53.882;10.642;2024-03-06T01:59:59;3.90;99.90
15926;DHT22;8062;53.882;10.642;2024-03-06T02:01:19;3.90;99.90
15926;DHT22;8062;53.882;10.642;2024-03-06T02:02:42;3.90;99.90
15926;DHT22;8062;53.882;10.642;2024-03-06T02:04:02;3.80;99.90
15926;DHT22;8062;53.882;10.642;2024-03-06T02:05:22;3.90;99.90
15926;DHT22;8062;53.882;10.642;2024-03-06T02:06:42;3.90;99.90
15926;DHT22;8062;53.882;10.642;2024-03-06T02:08:02;3.90;99.90
15926;DHT22;8062;53.882;10.642;2024-03-06T02:09:23;3.80;99.90
15926;DHT22;8062;53.882;10.642;2024-03-06T02:10:45;3.80;99.90
15926;DHT22;8062;53.882;10.642;2024-03-06T02:12:05;3.80;99.90
15926;DHT22;8062;53.882;10.642;2024-03-06T02:13:27;3.80;99.90
15926;DHT22;8062;53.882;10.642;2024-03-06T02:14:47;3.80;99.90
15926;DHT22;8062;53.882;10.642;2024-03-06T02:16:07;3.80;99.90
15926;DHT22;8062;53.882;10.642;2024-03-06T02:17:26;3.80;99.90
15926;DHT22;8062;53.882;10.642;2024-03-06T02:18:55;3.90;99.90
15926;DHT22;8062;53.882;10.642;2024-03-06T02:20:15;3.80;99.90
15926;DHT22;8062;53.882;10.642;2024-03-06T02:21:35;3.90;99.90
15926;DHT22;8062;53.882;10.642;2024-03-06T02:22:54;3.80;99.90
15926;DHT22;8062;53.882;10.642;2024-03-06T02:24:14;3.80;99.90
15926;DHT22;8062;53.882;10.642;2024-03-06T02:25:34;3.80;99.90
15926;DHT22;8062;53.882;10.642;2024-03-06T02:26:54;3.80;99.90
15926;DHT22;8062;53.882;10.642;2024-03-06T02:28:15;3.80;99.90
15926;DHT22;8062;53.882;10.642;2024-03-06T02:29:36;3.80;99.90
15926;DHT22;8062;53.882;10.642;2024-03-06T02:30:57;3.90;99.90
15926;DHT22;8062;53.882;10.642;2024-03-06T02:32:18;3.90;99.90
15926;DHT22;8062;53.882;10.642;2024-03-06T02:33:38;3.90;99.90
15926;DHT22;8062;53.882;10.642;2024-03-06T02:35:01;3.90;99.90
15926;DHT22;8062;53.882;10.642;2024-03-06T02:36:21;3.90;99.90
15926;DHT22;8062;53.882;10.642;2024-03-06T02:37:42;3.90;99.90
15926;DHT22;8062;53.882;10.642;2024-03-06T02:39:03;3.90;99.90
15926;DHT22;8062;53.882;10.642;2024-03-06T02:40:28;3.90;99.90
15926;DHT22;8062;53.882;10.642;2024-03-06T02:41:48;3.80;99.90
15926;DHT22;8062;53.882;10.642;2024-03-06T02:43:08;3.80;99.90
15926;DHT22;8062;53.882;10.642;2024-03-06T02:44:27;3.80;99.90
15926;DHT22;8062;53.882;10.642;2024-03-06T02:45:46;3.90;99.90
15926;DHT22;8062;53.882;10.642;2024-03-06T02:47:06;3.90;99.90
15926;DHT22;8062;53.882;10.642;2024-03-06T02:48:25;3.90;99.90
15926;DHT22;8062;53.882;10.642;2024-03-06T02:49:45;3.90;99.90
15926;DHT22;8062;53.882;10.642;2024-03-06T02:51:05;3.90;99.90
15926;DHT22;8062;53.882;10.642;2024-03-06T02:52:24;3.90;99.90
15926;DHT22;8062;53.882;10.642;2024-03-06T02:53:44;3.90;99.90
15926;DHT22;8062;53.882;10.642;2024-03-06T02:55:04;3.90;99.90
15926;DHT22;8062;53.882;10.642;2024-03-06T02:56:24;3.90;99.90
15926;DHT22;8062;53.882;10.642;2024-03-06T02:57:43;3.90;99.90
15926;DHT22;8062;53.882;10.642;2024-03-06T02:59:02;3.90;99.90
15926;DHT22;8062;53.882;10.642;2024-03-06T03:00:22;3.90;99.90
15926;DHT22;8062;53.882;10.642;2024-03-06T03:01:41;3.90;99.90
15926;DHT22;8062;53.882;10.642;2024-03-06T03:03:01;4.00;99.90
15926;DHT22;8062;53.882;10.642;2024-03-06T03:04:20;3.90;99.90
15926;DHT22;8062;53.882;10.642;2024-03-06T03:05:40;3.90;99.90
15926;DHT22;8062;53.882;10.642;2024-03-06T03:06:59;3.90;99.90
15926;DHT22;8062;53.882;10.642;2024-03-06T03:08:19;3.90;99.90
15926;DHT22;8062;53.882;10.642;2024-03-06T03:09:38;3.90;99.90
15926;DHT22;8062;53.882;10.642;2024-03-06T03:10:58;4.00;99.90
15926;DHT22;8062;53.882;10.642;2024-03-06T03:12:17;4.00;99.90
15926;DHT22;8062;53.882;10.642;2024-03-06T03:13:37;4.00;99.90
15926;DHT22;8062;53.882;10.642;2024-03-06T03:14:56;4.00;99.90
15926;DHT22;8062;53.882;10.642;2024-03-06T03:16:19;4.00;99.90
15926;DHT22;8062;53.882;10.642;2024-03-06T03:17:39;4.00;99.90
15926;DHT22;8062;53.882;10.642;2024-03-06T03:18:59;3.90;99.90
15926;DHT22;8062;53.882;10.642;2024-03-06T03:20:18;3.90;99.90
15926;DHT22;8062;53.882;10.642;2024-03-06T03:21:38;3.90;99.90
15926;DHT22;8062;53.882;10.642;2024-03-06T03:23:00;3.90;99.90
15926;DHT22;8062;53.882;10.642;2024-03-06T03:24:21;3.90;99.90
15926;DHT22;8062;53.882;10.642;2024-03-06T03:25:42;3.90;99.90
15926;DHT22;8062;53.882;10.642;2024-03-06T03:27:02;3.90;99.90
15926;DHT22;8062;53.882;10.642;2024-03-06T03:28:22;3.90;99.90
15926;DHT22;8062;53.882;10.642;2024-03-06T03:29:41;3.90;99.90
15926;DHT22;8062;53.882;10.642;2024-03-06T03:31:01;3.90;99.90
15926;DHT22;8062;53.882;10.642;2024-03-06T03:32:20;3.90;99.90
15926;DHT22;8062;53.882;10.642;2024-03-06T03:33:40;3.90;99.90
15926;DHT22;8062;53.882;10.642;2024-03-06T03:34:59;3.90;99.90
15926;DHT22;8062;53.882;10.642;2024-03-06T03:36:20;4.00;99.90
15926;DHT22;8062;53.882;10.642;2024-03-06T03:37:40;4.00;99.90
15926;DHT22;8062;53.882;10.642;2024-03-06T03:38:59;4.00;99.90
15926;DHT22;8062;53.882;10.642;2024-03-06T03:40:18;4.00;99.90
15926;DHT22;8062;53.882;10.642;2024-03-06T03:41:45;4.00;99.90
15926;DHT22;8062;53.882;10.642;2024-03-06T03:43:05;4.00;99.90
15926;DHT22;8062;53.882;10.642;2024-03-06T03:44:28;4.00;99.90
15926;DHT22;8062;53.882;10.642;2024-03-06T03:45:47;4.00;99.90
15926;DHT22;8062;53.882;10.642;2024-03-06T03:47:06;4.00;99.90
15926;DHT22;8062;53.882;10.642;2024-03-06T03:48:26;4.00;99.90
15926;DHT22;8062;53.882;10.642;2024-03-06T03:49:46;4.00;99.90
15926;DHT22;8062;53.882;10.642;2024-03-06T03:51:06;4.00;99.90
15926;DHT22;8062;53.882;10.642;2024-03-06T03:52:26;4.00;99.90
15926;DHT22;8062;53.882;10.642;2024-03-06T03:53:45;4.00;99.90
15926;DHT22;8062;53.882;10.642;2024-03-06T03:55:10;4.00;99.90
15926;DHT22;8062;53.882;10.642;2024-03-06T03:56:30;4.00;99.90
15926;DHT22;8062;53.882;10.642;2024-03-06T03:57:50;4.00;99.90
15926;DHT22;8062;53.882;10.642;2024-03-06T03:59:10;4.00;99.90
15926;DHT22;8062;53.882;10.642;2024-03-06T04:00:29;3.90;99.90
15926;DHT22;8062;53.882;10.642;2024-03-06T04:01:50;4.00;99.90
15926;DHT22;8062;53.882;10.642;2024-03-06T04:03:09;4.00;99.90
15926;DHT22;8062;53.882;10.642;2024-03-06T04:04:29;3.90;99.90
15926;DHT22;8062;53.882;10.642;2024-03-06T04:05:49;3.90;99.90
15926;DHT22;8062;53.882;10.642;2024-03-06T04:07:09;3.90;99.90
15926;DHT22;8062;53.882;10.642;2024-03-06T04:08:28;3.90;99.90
15926;DHT22;8062;53.882;10.642;2024-03-06T04:09:48;3.80;99.90
15926;DHT22;8062;53.882;10.642;2024-03-06T04:11:09;3.80;99.90
15926;DHT22;8062;53.882;10.642;2024-03-06T04:12:29;3.80;99.90
15926;DHT22;8062;53.882;10.642;2024-03-06T04:13:49;3.80;99.90
15926;DHT22;8062;53.882;10.642;2024-03-06T04:15:09;3.80;99.90
15926;DHT22;8062;53.882;10.642;2024-03-06T04:16:28;3.90;99.90
15926;DHT22;8062;53.882;10.642;2024-03-06T04:17:48;3.80;99.90
15926;DHT22;8062;53.882;10.642;2024-03-06T04:19:08;3.80;99.90
15926;DHT22;8062;53.882;10.642;2024-03-06T04:20:27;3.80;99.90
15926;DHT22;8062;53.882;10.642;2024-03-06T04:21:47;3.80;99.90
15926;DHT22;8062;53.882;10.642;2024-03-06T04:23:06;3.80;99.90
15926;DHT22;8062;53.882;10.642;2024-03-06T04:24:26;3.80;99.90
15926;DHT22;8062;53.882;10.642;2024-03-06T04:25:46;3.80;99.90
15926;DHT22;8062;53.882;10.642;2024-03-06T04:27:06;3.80;99.90
15926;DHT22;8062;53.882;10.642;2024-03-06T04:28:25;3.80;99.90
15926;DHT22;8062;53.882;10.642;2024-03-06T04:29:44;3.80;99.90
15926;DHT22;8062;53.882;10.642;2024-03-06T04:31:05;3.80;99.90
15926;DHT22;8062;53.882;10.642;2024-03-06T04:32:24;3.80;99.90
15926;DHT22;8062;53.882;10.642;2024-03-06T04:33:44;3.80;99.90
15926;DHT22;8062;53.882;10.642;2024-03-06T04:35:04;3.80;99.90
15926;DHT22;8062;53.882;10.642;2024-03-06T04:36:23;3.80;99.90
15926;DHT22;8062;53.882;10.642;2024-03-06T04:37:43;3.80;99.90
15926;DHT22;8062;53.882;10.642;2024-03-06T04:39:03;3.80;99.90
15926;DHT22;8062;53.882;10.642;2024-03-06T04:40:26;3.80;99.90
15926;DHT22;8062;53.882;10.642;2024-03-06T04:41:48;3.80;99.90
15926;DHT22;8062;53.882;10.642;2024-03-06T04:43:07;3.80;99.90
15926;DHT22;8062;53.882;10.642;2024-03-06T04:44:27;3.80;99.90
15926;DHT22;8062;53.882;10.642;2024-03-06T04:45:47;3.80;99.90
15926;DHT22;8062;53.882;10.642;2024-03-06T04:47:07;3.80;99.90
15926;DHT22;8062;53.882;10.642;2024-03-06T04:48:26;3.80;99.90
15926;DHT22;8062;53.882;10.642;2024-03-06T04:49:45;3.80;99.90
15926;DHT22;8062;53.882;10.642;2024-03-06T04:51:05;3.80;99.90
15926;DHT22;8062;53.882;10.642;2024-03-06T04:52:25;3.80;99.90
15926;DHT22;8062;53.882;10.642;2024-03-06T04:53:45;3.80;99.90
15926;DHT22;8062;53.882;10.642;2024-03-06T04:55:05;3.80;99.90
15926;DHT22;8062;53.882;10.642;2024-03-06T04:56:25;3.80;99.90
15926;DHT22;8062;53.882;10.642;2024-03-06T04:57:45;3.80;99.90
15926;DHT22;8062;53.882;10.642;2024-03-06T04:59:04;3.80;99.90
15926;DHT22;8062;53.882;10.642;2024-03-06T05:00:24;3.80;99.90
15926;DHT22;8062;53.882;10.642;2024-03-06T05:01:43;3.80;99.90
15926;DHT22;8062;53.882;10.642;2024-03-06T05:03:03;3.80;99.90
15926;DHT22;8062;53.882;10.642;2024-03-06T05:04:23;3.80;99.90
15926;DHT22;8062;53.882;10.642;2024-03-06T05:05:43;3.80;99.90
15926;DHT22;8062;53.882;10.642;2024-03-06T05:07:02;3.80;99.90
15926;DHT22;8062;53.882;10.642;2024-03-06T05:08:22;3.80;99.90
15926;DHT22;8062;53.882;10.642;2024-03-06T05:09:41;3.80;99.90
15926;DHT22;8062;53.882;10.642;2024-03-06T05:11:01;3.80;99.90
15926;DHT22;8062;53.882;10.642;2024-03-06T05:12:21;3.80;99.90
15926;DHT22;8062;53.882;10.642;2024-03-06T05:13:41;3.80;99.90
15926;DHT22;8062;53.882;10.642;2024-03-06T05:15:00;3.80;99.90
15926;DHT22;8062;53.882;10.642;2024-03-06T05:16:20;3.80;99.90
15926;DHT22;8062;53.882;10.642;2024-03-06T05:17:42;3.80;99.90
15926;DHT22;8062;53.882;10.642;2024-03-06T05:19:03;3.80;99.90
15926;DHT22;8062;53.882;10.642;2024-03-06T05:20:23;3.80;99.90
15926;DHT22;8062;53.882;10.642;2024-03-06T05:21:43;3.80;99.90
15926;DHT22;8062;53.882;10.642;2024-03-06T05:23:03;3.70;99.90
15926;DHT22;8062;53.882;10.642;2024-03-06T05:24:22;3.70;99.90
15926;DHT22;8062;53.882;10.642;2024-03-06T05:25:41;3.70;99.90
15926;DHT22;8062;53.882;10.642;2024-03-06T05:27:01;3.70;99.90
15926;DHT22;8062;53.882;10.642;2024-03-06T05:28:21;3.70;99.90
15926;DHT22;8062;53.882;10.642;2024-03-06T05:29:40;3.70;99.90
15926;DHT22;8062;53.882;10.642;2024-03-06T05:31:00;3.80;99.90
15926;DHT22;8062;53.882;10.642;2024-03-06T05:32:29;3.80;99.90
15926;DHT22;8062;53.882;10.642;2024-03-06T05:33:49;3.70;99.90
15926;DHT22;8062;53.882;10.642;2024-03-06T05:35:08;3.80;99.90
15926;DHT22;8062;53.882;10.642;2024-03-06T05:36:29;3.70;99.90
15926;DHT22;8062;53.882;10.642;2024-03-06T05:37:48;3.70;99.90
15926;DHT22;8062;53.882;10.642;2024-03-06T05:39:07;3.70;99.90
15926;DHT22;8062;53.882;10.642;2024-03-06T05:40:31;3.70;99.90
15926;DHT22;8062;53.882;10.642;2024-03-06T05:41:55;3.70;99.90
15926;DHT22;8062;53.882;10.642;2024-03-06T05:43:14;3.70;99.90
15926;DHT22;8062;53.882;10.642;2024-03-06T05:44:34;3.70;99.90
15926;DHT22;8062;53.882;10.642;2024-03-06T05:45:53;3.70;99.90
15926;DHT22;8062;53.882;10.642;2024-03-06T05:47:13;3.70;99.90
15926;DHT22;8062;53.882;10.642;2024-03-06T05:48:32;3.70;99.90
15926;DHT22;8062;53.882;10.642;2024-03-06T05:49:52;3.70;99.90
15926;DHT22;8062;53.882;10.642;2024-03-06T05:51:12;3.70;99.90
15926;DHT22;8062;53.882;10.642;2024-03-06T05:52:32;3.70;99.90
15926;DHT22;8062;53.882;10.642;2024-03-06T05:53:52;3.70;99.90
15926;DHT22;8062;53.882;10.642;2024-03-06T05:55:11;3.70;99.90
15926;DHT22;8062;53.882;10.642;2024-03-06T05:56:31;3.70;99.90
15926;DHT22;8062;53.882;10.642;2024-03-06T05:57:50;3.70;99.90
15926;DHT22;8062;53.882;10.642;2024-03-06T05:59:10;3.70;99.90
15926;DHT22;8062;53.882;10.642;2024-03-06T06:00:29;3.70;99.90
15926;DHT22;8062;53.882;10.642;2024-03-06T06:01:49;3.70;99.90
15926;DHT22;8062;53.882;10.642;2024-03-06T06:03:08;3.70;99.90
15926;DHT22;8062;53.882;10.642;2024-03-06T06:04:30;3.70;99.90
15926;DHT22;8062;53.882;10.642;2024-03-06T06:05:50;3.70;99.90
15926;DHT22;8062;53.882;10.642;2024-03-06T06:07:10;3.70;99.90
15926;DHT22;8062;53.882;10.642;2024-03-06T06:08:29;3.80;99.90
15926;DHT22;8062;53.882;10.642;2024-03-06T06:09:49;3.80;99.90
15926;DHT22;8062;53.882;10.642;2024-03-06T06:11:08;3.70;99.90
15926;DHT22;8062;53.882;10.642;2024-03-06T06:12:28;3.70;99.90
15926;DHT22;8062;53.882;10.642;2024-03-06T06:13:47;3.70;99.90
15926;DHT22;8062;53.882;10.642;2024-03-06T06:15:07;3.80;99.90
15926;DHT22;8062;53.882;10.642;2024-03-06T06:16:26;3.80;99.90
15926;DHT22;8062;53.882;10.642;2024-03-06T06:17:46;3.80;99.90
15926;DHT22;8062;53.882;10.642;2024-03-06T06:19:05;3.70;99.90
15926;DHT22;8062;53.882;10.642;2024-03-06T06:20:25;3.70;99.90
15926;DHT22;8062;53.882;10.642;2024-03-06T06:21:44;3.80;99.90
15926;DHT22;8062;53.882;10.642;2024-03-06T06:23:04;3.80;99.90
15926;DHT22;8062;53.882;10.642;2024-03-06T06:24:23;3.80;99.90
15926;DHT22;8062;53.882;10.642;2024-03-06T06:25:43;3.80;99.90
15926;DHT22;8062;53.882;10.642;2024-03-06T06:27:02;3.80;99.90
15926;DHT22;8062;53.882;10.642;2024-03-06T06:28:22;3.90;99.90
15926;DHT22;8062;53.882;10.642;2024-03-06T06:29:42;3.80;99.90
15926;DHT22;8062;53.882;10.642;2024-03-06T06:31:02;3.90;99.90
15926;DHT22;8062;53.882;10.642;2024-03-06T06:32:21;3.90;99.90
15926;DHT22;8062;53.882;10.642;2024-03-06T06:33:41;3.90;99.90
15926;DHT22;8062;53.882;10.642;2024-03-06T06:35:00;3.90;99.90
15926;DHT22;8062;53.882;10.642;2024-03-06T06:36:20;3.90;99.90
15926;DHT22;8062;53.882;10.642;2024-03-06T06:37:39;4.00;99.90
15926;DHT22;8062;53.882;10.642;2024-03-06T06:38:59;4.00;99.90
15926;DHT22;8062;53.882;10.642;2024-03-06T06:40:19;4.00;99.90
15926;DHT22;8062;53.882;10.642;2024-03-06T06:41:38;3.90;99.90
15926;DHT22;8062;53.882;10.642;2024-03-06T06:42:58;3.90;99.90
15926;DHT22;8062;53.882;10.642;2024-03-06T06:44:18;4.00;99.90
15926;DHT22;8062;53.882;10.642;2024-03-06T06:45:38;3.90;99.90
15926;DHT22;8062;53.882;10.642;2024-03-06T06:46:57;3.90;99.90
15926;DHT22;8062;53.882;10.642;2024-03-06T06:48:17;3.90;99.90
15926;DHT22;8062;53.882;10.642;2024-03-06T06:49:37;3.90;99.90
15926;DHT22;8062;53.882;10.642;2024-03-06T06:50:57;4.00;99.90
15926;DHT22;8062;53.882;10.642;2024-03-06T06:52:17;4.00;99.90
15926;DHT22;8062;53.882;10.642;2024-03-06T06:53:39;4.00;99.90
15926;DHT22;8062;53.882;10.642;2024-03-06T06:54:59;4.00;99.90
15926;DHT22;8062;53.882;10.642;2024-03-06T06:56:19;4.00;99.90
15926;DHT22;8062;53.882;10.642;2024-03-06T06:57:38;4.00;99.90
15926;DHT22;8062;53.882;10.642;2024-03-06T06:58:58;4.00;99.90
15926;DHT22;8062;53.882;10.642;2024-03-06T07:00:18;4.00;99.90
15926;DHT22;8062;53.882;10.642;2024-03-06T07:01:38;4.00;99.90
15926;DHT22;8062;53.882;10.642;2024-03-06T07:02:58;4.00;99.90
15926;DHT22;8062;53.882;10.642;2024-03-06T07:04:17;4.10;99.90
15926;DHT22;8062;53.882;10.642;2024-03-06T07:05:39;4.10;99.90
15926;DHT22;8062;53.882;10.642;2024-03-06T07:07:00;4.10;99.90
15926;DHT22;8062;53.882;10.642;2024-03-06T07:08:20;4.00;99.90
15926;DHT22;8062;53.882;10.642;2024-03-06T07:09:40;4.00;99.90
15926;DHT22;8062;53.882;10.642;2024-03-06T07:10:59;4.00;99.90
15926;DHT22;8062;53.882;10.642;2024-03-06T07:12:19;4.10;99.90
15926;DHT22;8062;53.882;10.642;2024-03-06T07:13:38;4.00;99.90
15926;DHT22;8062;53.882;10.642;2024-03-06T07:14:58;4.10;99.90
15926;DHT22;8062;53.882;10.642;2024-03-06T07:16:18;4.10;99.90
15926;DHT22;8062;53.882;10.642;2024-03-06T07:17:38;4.10;99.90
15926;DHT22;8062;53.882;10.642;2024-03-06T07:18:58;4.10;99.90
15926;DHT22;8062;53.882;10.642;2024-03-06T07:20:19;4.10;99.90
15926;DHT22;8062;53.882;10.642;2024-03-06T07:21:39;4.10;99.90
15926;DHT22;8062;53.882;10.642;2024-03-06T07:22:59;4.10;99.90
15926;DHT22;8062;53.882;10.642;2024-03-06T07:24:18;4.20;99.90
15926;DHT22;8062;53.882;10.642;2024-03-06T07:25:37;4.20;99.90
15926;DHT22;8062;53.882;10.642;2024-03-06T07:26:57;4.20;99.90
15926;DHT22;8062;53.882;10.642;2024-03-06T07:28:16;4.20;99.90
15926;DHT22;8062;53.882;10.642;2024-03-06T07:29:36;4.20;99.90
15926;DHT22;8062;53.882;10.642;2024-03-06T07:30:56;4.20;99.90
15926;DHT22;8062;53.882;10.642;2024-03-06T07:32:16;4.20;99.90
15926;DHT22;8062;53.882;10.642;2024-03-06T07:33:35;4.20;99.90
15926;DHT22;8062;53.882;10.642;2024-03-06T07:34:57;4.20;99.90
15926;DHT22;8062;53.882;10.642;2024-03-06T07:36:18;4.10;99.90
15926;DHT22;8062;53.882;10.642;2024-03-06T07:37:38;4.20;99.90
15926;DHT22;8062;53.882;10.642;2024-03-06T07:38:57;4.20;99.90
15926;DHT22;8062;53.882;10.642;2024-03-06T07:40:17;4.20;99.90
15926;DHT22;8062;53.882;10.642;2024-03-06T07:41:36;4.20;99.90
15926;DHT22;8062;53.882;10.642;2024-03-06T07:42:55;4.20;99.90
15926;DHT22;8062;53.882;10.642;2024-03-06T07:44:15;4.10;99.90
15926;DHT22;8062;53.882;10.642;2024-03-06T07:45:34;4.10;99.90
15926;DHT22;8062;53.882;10.642;2024-03-06T07:46:54;4.10;99.90
15926;DHT22;8062;53.882;10.642;2024-03-06T07:48:13;4.10;99.90
15926;DHT22;8062;53.882;10.642;2024-03-06T07:49:33;4.20;99.90
15926;DHT22;8062;53.882;10.642;2024-03-06T07:50:52;4.30;99.90
15926;DHT22;8062;53.882;10.642;2024-03-06T07:52:12;4.30;99.90
15926;DHT22;8062;53.882;10.642;2024-03-06T07:53:31;4.30;99.90
15926;DHT22;8062;53.882;10.642;2024-03-06T07:54:50;4.30;99.90
15926;DHT22;8062;53.882;10.642;2024-03-06T07:56:10;4.40;99.90
15926;DHT22;8062;53.882;10.642;2024-03-06T07:57:31;4.40;99.90
15926;DHT22;8062;53.882;10.642;2024-03-06T07:58:51;4.40;99.90
15926;DHT22;8062;53.882;10.642;2024-03-06T08:00:11;4.50;99.90
15926;DHT22;8062;53.882;10.642;2024-03-06T08:01:33;4.40;99.90
15926;DHT22;8062;53.882;10.642;2024-03-06T08:02:53;4.40;99.90
15926;DHT22;8062;53.882;10.642;2024-03-06T08:04:12;4.40;99.90
15926;DHT22;8062;53.882;10.642;2024-03-06T08:05:31;4.50;99.90
15926;DHT22;8062;53.882;10.642;2024-03-06T08:06:53;4.50;99.90
15926;DHT22;8062;53.882;10.642;2024-03-06T08:08:12;4.50;99.90
15926;DHT22;8062;53.882;10.642;2024-03-06T08:09:31;4.50;99.90
15926;DHT22;8062;53.882;10.642;2024-03-06T08:10:51;4.50;99.90
15926;DHT22;8062;53.882;10.642;2024-03-06T08:12:11;4.60;99.90
15926;DHT22;8062;53.882;10.642;2024-03-06T08:13:30;4.60;99.90
15926;DHT22;8062;53.882;10.642;2024-03-06T08:14:50;4.60;99.90
15926;DHT22;8062;53.882;10.642;2024-03-06T08:16:09;4.50;99.90
15926;DHT22;8062;53.882;10.642;2024-03-06T08:17:29;4.50;99.90
15926;DHT22;8062;53.882;10.642;2024-03-06T08:18:48;4.60;99.90
15926;DHT22;8062;53.882;10.642;2024-03-06T08:20:09;4.60;99.90
15926;DHT22;8062;53.882;10.642;2024-03-06T08:21:29;4.60;99.90
15926;DHT22;8062;53.882;10.642;2024-03-06T08:22:48;4.60;99.90
15926;DHT22;8062;53.882;10.642;2024-03-06T08:24:08;4.60;99.90
15926;DHT22;8062;53.882;10.642;2024-03-06T08:25:28;4.50;99.90
15926;DHT22;8062;53.882;10.642;2024-03-06T08:26:47;4.50;99.90
15926;DHT22;8062;53.882;10.642;2024-03-06T08:28:08;4.50;99.90
15926;DHT22;8062;53.882;10.642;2024-03-06T08:29:29;4.60;99.90
15926;DHT22;8062;53.882;10.642;2024-03-06T08:30:48;4.70;99.90
15926;DHT22;8062;53.882;10.642;2024-03-06T08:32:08;4.70;99.90